Time;durP1;ratioP1;P1;durP2;ratioP2;P2;SDS_P1;SDS_P2;PMS_P1;PMS_P2;Temp;Humidity;BMP_temperature;BMP_pressure;BME280_temperature;BME280_humidity;BME280_pressure;Samples;Min_cycle;Max_cycle;Signal;HPM_P1;HPM_P2
2022/07/23 00:02:15;;;;;;;;;11.00;9.33;;;;;;;;5037802;28;45442;-75
2022/07/23 00:04:41;;;;;;;;;7.00;7.00;;;;;;;;5037942;28;45472;-74
2022/07/23 00:07:06;;;;;;;;;9.00;8.00;;;;;;;;5037757;28;45337;-75
2022/07/23 00:09:31;;;;;;;;;12.67;8.67;;;;;;;;5037765;28;45256;-75
2022/07/23 00:11:57;;;;;;;;;7.67;6.33;;;;;;;;5037924;28;45297;-74
2022/07/23 00:14:22;;;;;;;;;7.67;7.00;;;;;;;;5037924;28;45448;-74
2022/07/23 00:16:47;;;;;;;;;9.00;7.00;;;;;;;;5037444;28;46538;-74
2022/07/23 00:19:12;;;;;;;;;9.00;6.00;;;;;;;;5037587;28;45222;-75
2022/07/23 00:21:38;;;;;;;;;6.67;5.00;;;;;;;;5037588;28;45408;-74
2022/07/23 00:24:03;;;;;;;;;11.67;9.00;;;;;;;;5037943;28;45437;-74
2022/07/23 00:26:28;;;;;;;;;8.67;8.33;;;;;;;;5037162;28;45477;-75
2022/07/23 00:28:54;;;;;;;;;9.67;7.67;;;;;;;;5037334;28;45195;-75
2022/07/23 00:31:19;;;;;;;;;7.33;7.00;;;;;;;;5037563;28;45318;-74
2022/07/23 00:33:44;;;;;;;;;5.33;5.00;;;;;;;;5037694;28;45374;-74
2022/07/23 00:36:09;;;;;;;;;8.00;6.00;;;;;;;;5037298;28;45346;-74
2022/07/23 00:38:34;;;;;;;;;8.33;8.00;;;;;;;;5037243;28;45538;-74
2022/07/23 00:41:00;;;;;;;;;7.67;7.67;;;;;;;;5037515;28;45366;-75
2022/07/23 00:43:25;;;;;;;;;5.33;5.33;;;;;;;;5038683;28;45584;-74
2022/07/23 00:45:50;;;;;;;;;15.33;10.67;;;;;;;;5040751;28;45365;-74
2022/07/23 00:48:15;;;;;;;;;7.67;7.67;;;;;;;;5040926;28;45334;-74
2022/07/23 00:50:41;;;;;;;;;7.00;7.00;;;;;;;;5040892;28;45382;-74
2022/07/23 00:53:08;;;;;;;;;9.33;6.33;;;;;;;;5041192;28;45385;-74
2022/07/23 00:55:33;;;;;;;;;14.67;8.00;;;;;;;;5040495;28;46076;-75
2022/07/23 00:57:59;;;;;;;;;11.67;9.67;;;;;;;;5040602;28;45289;-74
2022/07/23 01:00:24;;;;;;;;;8.33;8.33;;;;;;;;5041003;28;45365;-74
2022/07/23 01:02:50;;;;;;;;;9.33;8.33;;;;;;;;5040548;28;45413;-74
2022/07/23 01:05:15;;;;;;;;;10.33;8.33;;;;;;;;5040638;28;46530;-75
2022/07/23 01:07:41;;;;;;;;;11.00;9.33;;;;;;;;5040442;28;45373;-76
2022/07/23 01:10:30;;;;;;;;;9.67;9.67;;;;;;;;5040551;28;45835;-74
2022/07/23 01:12:52;;;;;;;;;12.67;10.67;;;;;;;;5040614;28;45192;-74
2022/07/23 01:15:17;;;;;;;;;12.33;10.67;;;;;;;;5040172;28;45227;-74
2022/07/23 01:17:42;;;;;;;;;11.67;10.00;;;;;;;;5040461;28;45224;-74
2022/07/23 01:20:07;;;;;;;;;9.33;9.00;;;;;;;;5040421;28;45277;-74
2022/07/23 01:22:33;;;;;;;;;14.00;9.00;;;;;;;;5040503;28;45563;-74
2022/07/23 01:24:58;;;;;;;;;11.33;11.00;;;;;;;;5040134;28;46586;-75
2022/07/23 01:27:23;;;;;;;;;12.33;10.33;;;;;;;;5040164;28;45415;-74
2022/07/23 01:29:48;;;;;;;;;10.67;9.67;;;;;;;;5022312;28;45378;-74
2022/07/23 01:32:14;;;;;;;;;11.33;9.67;;;;;;;;5040649;28;45422;-74
2022/07/23 01:34:40;;;;;;;;;12.33;10.00;;;;;;;;5039918;28;45366;-74
2022/07/23 01:37:05;;;;;;;;;15.67;9.00;;;;;;;;5040099;28;45435;-75
2022/07/23 01:39:31;;;;;;;;;12.33;11.33;;;;;;;;5040080;28;45289;-74
2022/07/23 01:41:56;;;;;;;;;41.33;35.67;;;;;;;;5040237;28;45322;-74
2022/07/23 01:44:21;;;;;;;;;12.33;12.00;;;;;;;;5039801;28;46151;-74
2022/07/23 01:46:46;;;;;;;;;11.67;11.67;;;;;;;;5040015;28;45373;-74
2022/07/23 01:49:12;;;;;;;;;11.33;11.00;;;;;;;;5040071;28;45363;-74
2022/07/23 01:51:37;;;;;;;;;13.33;10.33;;;;;;;;5039948;28;45480;-74
2022/07/23 01:54:02;;;;;;;;;11.67;10.00;;;;;;;;5039820;28;46354;-74
2022/07/23 01:56:27;;;;;;;;;14.67;13.67;;;;;;;;5039712;28;45405;-74
2022/07/23 01:58:53;;;;;;;;;12.67;10.67;;;;;;;;5039830;28;45366;-74
2022/07/23 02:01:18;;;;;;;;;11.33;10.33;;;;;;;;5040115;28;45362;-74
2022/07/23 02:03:43;;;;;;;;;15.33;14.33;;;;;;;;5039145;28;46599;-74
2022/07/23 02:06:08;;;;;;;;;12.33;10.67;;;;;;;;5039561;28;45406;-75
2022/07/23 02:08:33;;;;;;;;;22.00;17.33;;;;;;;;5039708;28;45307;-74
2022/07/23 02:10:59;;;;;;;;;14.33;12.00;;;;;;;;5039878;28;45385;-74
2022/07/23 02:13:24;;;;;;;;;10.00;8.00;;;;;;;;5039643;28;46219;-74
2022/07/23 02:15:49;;;;;;;;;19.33;13.33;;;;;;;;5039324;28;45342;-74
2022/07/23 02:18:14;;;;;;;;;13.00;12.67;;;;;;;;5039580;28;45400;-74
2022/07/23 02:20:40;;;;;;;;;17.00;13.67;;;;;;;;5039581;28;45416;-74
2022/07/23 02:23:06;;;;;;;;;9.33;8.00;;;;;;;;5039393;28;45424;-74
2022/07/23 02:25:31;;;;;;;;;16.00;12.33;;;;;;;;5039281;28;45676;-74
2022/07/23 02:27:56;;;;;;;;;13.67;12.00;;;;;;;;5039266;28;45256;-74
2022/07/23 02:30:22;;;;;;;;;17.67;12.00;;;;;;;;5039651;28;45387;-74
2022/07/23 02:32:47;;;;;;;;;13.00;11.67;;;;;;;;5039187;28;46118;-74
2022/07/23 02:35:12;;;;;;;;;14.33;13.00;;;;;;;;5039071;28;45308;-74
2022/07/23 02:37:37;;;;;;;;;13.33;12.33;;;;;;;;5039373;28;45259;-74
2022/07/23 02:40:03;;;;;;;;;13.00;12.00;;;;;;;;5039482;28;45447;-74
2022/07/23 02:42:28;;;;;;;;;15.33;13.00;;;;;;;;5038850;28;46547;-74
2022/07/23 02:44:53;;;;;;;;;15.33;13.33;;;;;;;;5039164;28;45384;-74
2022/07/23 02:47:18;;;;;;;;;13.67;11.33;;;;;;;;5039216;28;45238;-74
2022/07/23 02:49:43;;;;;;;;;15.00;15.00;;;;;;;;5039200;28;45148;-74
2022/07/23 02:52:10;;;;;;;;;9.67;9.67;;;;;;;;5038863;28;45320;-74
2022/07/23 02:54:35;;;;;;;;;17.00;14.67;;;;;;;;5038866;28;45445;-74
2022/07/23 02:57:01;;;;;;;;;14.33;14.33;;;;;;;;5038840;28;45321;-74
2022/07/23 02:59:26;;;;;;;;;20.00;14.33;;;;;;;;5038971;28;45389;-74
2022/07/23 03:01:51;;;;;;;;;18.33;18.33;;;;;;;;5038381;28;46656;-74
2022/07/23 03:04:16;;;;;;;;;13.67;12.67;;;;;;;;5038660;28;45576;-74
2022/07/23 03:06:41;;;;;;;;;16.33;14.00;;;;;;;;5038409;28;45342;-74
2022/07/23 03:09:07;;;;;;;;;16.33;14.67;;;;;;;;5038834;28;45373;-74
2022/07/23 03:11:32;;;;;;;;;19.33;15.33;;;;;;;;5038507;28;47237;-75
2022/07/23 03:13:57;;;;;;;;;18.33;13.33;;;;;;;;5038485;28;45373;-74
2022/07/23 03:16:22;;;;;;;;;20.33;15.33;;;;;;;;5038502;28;45405;-74
2022/07/23 03:18:48;;;;;;;;;16.00;14.33;;;;;;;;5038674;28;45298;-74
2022/07/23 03:21:13;;;;;;;;;20.67;18.00;;;;;;;;5038365;28;46333;-74
2022/07/23 03:23:38;;;;;;;;;17.00;14.33;;;;;;;;5038212;28;45385;-75
2022/07/23 03:26:04;;;;;;;;;25.67;21.33;;;;;;;;5038530;28;45309;-74
2022/07/23 03:28:29;;;;;;;;;22.67;19.33;;;;;;;;5038569;28;45320;-74
2022/07/23 03:30:54;;;;;;;;;15.00;12.67;;;;;;;;5038344;28;45409;-74
2022/07/23 03:33:20;;;;;;;;;15.67;14.00;;;;;;;;5038292;28;45409;-75
2022/07/23 03:35:46;;;;;;;;;24.00;19.00;;;;;;;;5038252;28;45319;-75
2022/07/23 03:38:11;;;;;;;;;14.00;12.67;;;;;;;;5038745;28;45226;-74
2022/07/23 03:40:37;;;;;;;;;19.67;14.67;;;;;;;;5037868;28;46408;-74
2022/07/23 03:43:02;;;;;;;;;22.33;14.67;;;;;;;;5038153;28;45434;-74
2022/07/23 03:45:27;;;;;;;;;14.67;13.33;;;;;;;;5038253;28;45401;-75
2022/07/23 03:47:53;;;;;;;;;14.33;13.33;;;;;;;;5038472;28;45211;-74
2022/07/23 03:50:18;;;;;;;;;13.00;11.67;;;;;;;;5037748;28;45493;-74
2022/07/23 03:52:43;;;;;;;;;19.00;13.33;;;;;;;;5037986;28;45211;-74
2022/07/23 03:55:08;;;;;;;;;17.33;15.33;;;;;;;;5038086;28;45380;-75
2022/07/23 03:57:34;;;;;;;;;18.33;15.67;;;;;;;;5038124;28;45591;-74
2022/07/23 03:59:59;;;;;;;;;18.00;14.33;;;;;;;;5036816;28;45364;-74
2022/07/23 04:02:24;;;;;;;;;21.00;17.00;;;;;;;;5037469;28;45278;-74
2022/07/23 04:04:50;;;;;;;;;18.67;13.67;;;;;;;;5037665;28;45429;-75
2022/07/23 04:07:17;;;;;;;;;18.67;14.33;;;;;;;;5038157;28;45414;-74
2022/07/23 04:09:42;;;;;;;;;22.67;21.00;;;;;;;;5037355;28;47078;-74
2022/07/23 04:12:07;;;;;;;;;14.67;14.67;;;;;;;;5037606;28;45382;-75
2022/07/23 04:14:33;;;;;;;;;19.33;16.33;;;;;;;;5037755;28;45338;-74
2022/07/23 04:16:58;;;;;;;;;17.00;15.33;;;;;;;;5037575;28;45421;-74
2022/07/23 04:19:23;;;;;;;;;15.33;13.33;;;;;;;;5036675;28;45467;-74
2022/07/23 04:21:49;;;;;;;;;16.33;14.33;;;;;;;;5037441;28;45381;-74
2022/07/23 04:24:14;;;;;;;;;19.33;19.33;;;;;;;;5037474;28;45298;-74
2022/07/23 04:26:39;;;;;;;;;14.67;14.00;;;;;;;;5037739;28;45306;-74
2022/07/23 04:29:04;;;;;;;;;18.33;16.00;;;;;;;;5037323;28;46147;-74
2022/07/23 04:31:30;;;;;;;;;20.67;18.00;;;;;;;;5037336;28;45455;-74
2022/07/23 04:33:55;;;;;;;;;14.33;12.33;;;;;;;;5037465;28;45381;-74
2022/07/23 04:36:20;;;;;;;;;15.33;14.33;;;;;;;;5037502;28;45297;-74
2022/07/23 04:38:45;;;;;;;;;21.00;16.00;;;;;;;;5037101;28;45419;-74
2022/07/23 04:41:10;;;;;;;;;17.33;14.33;;;;;;;;5037286;28;45521;-74
2022/07/23 04:43:36;;;;;;;;;15.33;14.00;;;;;;;;5037451;28;45397;-74
2022/07/23 04:46:01;;;;;;;;;19.33;15.67;;;;;;;;5037514;28;45227;-74
2022/07/23 04:48:26;;;;;;;;;9.67;9.67;;;;;;;;5037192;28;45345;-75
2022/07/23 04:50:51;;;;;;;;;20.67;13.67;;;;;;;;5036957;28;45181;-74
2022/07/23 04:53:18;;;;;;;;;15.33;12.00;;;;;;;;5037205;28;45342;-75
2022/07/23 04:55:43;;;;;;;;;15.67;13.33;;;;;;;;5037358;28;45487;-75
2022/07/23 04:58:08;;;;;;;;;15.33;15.33;;;;;;;;5036897;28;46416;-74
2022/07/23 05:00:34;;;;;;;;;15.67;15.67;;;;;;;;5037244;28;45333;-74
2022/07/23 05:02:59;;;;;;;;;17.00;13.33;;;;;;;;5036860;28;45292;-74
2022/07/23 05:05:24;;;;;;;;;18.67;13.33;;;;;;;;5037137;28;45441;-74
2022/07/23 05:07:49;;;;;;;;;14.33;12.00;;;;;;;;5036991;28;47051;-74
2022/07/23 05:10:15;;;;;;;;;17.33;14.67;;;;;;;;5036427;28;45334;-74
2022/07/23 05:12:40;;;;;;;;;21.00;18.00;;;;;;;;5036991;28;45266;-74
2022/07/23 05:15:05;;;;;;;;;21.67;14.00;;;;;;;;5037029;28;45213;-75
2022/07/23 05:17:30;;;;;;;;;15.33;14.67;;;;;;;;5036585;28;46067;-75
2022/07/23 05:19:55;;;;;;;;;16.33;13.33;;;;;;;;5036597;28;45355;-75
2022/07/23 05:22:21;;;;;;;;;25.67;19.00;;;;;;;;5036870;28;45310;-74
2022/07/23 05:24:46;;;;;;;;;18.00;16.67;;;;;;;;5037114;28;45468;-74
2022/07/23 05:27:11;;;;;;;;;16.33;15.00;;;;;;;;5036608;28;45275;-75
2022/07/23 05:29:36;;;;;;;;;16.33;14.33;;;;;;;;5037974;28;45346;-75
2022/07/23 05:32:02;;;;;;;;;14.67;14.67;;;;;;;;5040337;28;45361;-75
2022/07/23 05:34:27;;;;;;;;;14.00;13.00;;;;;;;;5040302;28;45458;-74
2022/07/23 05:36:52;;;;;;;;;21.33;18.67;;;;;;;;5039809;28;45456;-74
2022/07/23 05:39:17;;;;;;;;;16.67;14.67;;;;;;;;5039898;28;45484;-74
2022/07/23 05:41:43;;;;;;;;;22.33;16.67;;;;;;;;5040035;28;45416;-74
2022/07/23 05:44:08;;;;;;;;;25.00;18.00;;;;;;;;5040177;28;45507;-74
2022/07/23 05:46:33;;;;;;;;;18.00;18.00;;;;;;;;5039864;28;46567;-74
2022/07/23 05:48:58;;;;;;;;;18.67;17.00;;;;;;;;5040020;28;45396;-74
2022/07/23 05:51:24;;;;;;;;;19.33;18.00;;;;;;;;5021748;28;45378;-75
2022/07/23 05:53:50;;;;;;;;;17.67;17.67;;;;;;;;5040015;28;45326;-74
2022/07/23 05:56:16;;;;;;;;;17.33;17.00;;;;;;;;5039538;28;45299;-74
2022/07/23 05:58:41;;;;;;;;;22.67;19.67;;;;;;;;5039606;28;45374;-74
2022/07/23 06:01:06;;;;;;;;;20.33;18.00;;;;;;;;5039758;28;45380;-74
2022/07/23 06:03:31;;;;;;;;;23.33;20.00;;;;;;;;5039543;28;45324;-74
2022/07/23 06:05:57;;;;;;;;;21.33;18.00;;;;;;;;5039562;28;46733;-75
2022/07/23 06:08:22;;;;;;;;;19.00;17.67;;;;;;;;5039559;28;45417;-74
2022/07/23 06:10:47;;;;;;;;;22.00;18.33;;;;;;;;5039610;28;45296;-74
2022/07/23 06:13:12;;;;;;;;;27.67;25.33;;;;;;;;5039863;28;45200;-74
2022/07/23 06:15:38;;;;;;;;;26.00;25.00;;;;;;;;5039205;28;46265;-74
2022/07/23 06:18:03;;;;;;;;;25.00;18.67;;;;;;;;5039430;28;45372;-75
2022/07/23 06:20:28;;;;;;;;;21.33;21.00;;;;;;;;5039426;28;45499;-75
2022/07/23 06:22:53;;;;;;;;;26.67;23.33;;;;;;;;5039418;28;45444;-75
2022/07/23 06:25:20;;;;;;;;;20.67;20.67;;;;;;;;5038896;28;45623;-75
2022/07/23 06:27:45;;;;;;;;;19.33;18.67;;;;;;;;5039055;28;45298;-75
2022/07/23 06:30:11;;;;;;;;;24.67;20.33;;;;;;;;5039454;28;45225;-75
2022/07/23 06:32:36;;;;;;;;;22.00;19.00;;;;;;;;5039413;28;45385;-74
2022/07/23 06:35:01;;;;;;;;;29.00;25.33;;;;;;;;5038475;28;46554;-74
2022/07/23 06:37:26;;;;;;;;;18.33;16.33;;;;;;;;5039020;28;45490;-74
2022/07/23 06:39:52;;;;;;;;;24.67;22.67;;;;;;;;5039151;28;45435;-74
2022/07/23 06:42:17;;;;;;;;;25.33;21.00;;;;;;;;5038362;28;45440;-74
2022/07/23 06:44:42;;;;;;;;;25.00;22.00;;;;;;;;5038946;28;46256;-76
2022/07/23 06:47:08;;;;;;;;;26.00;21.00;;;;;;;;5039009;28;45541;-75
2022/07/23 06:49:33;;;;;;;;;21.67;19.67;;;;;;;;5039056;28;45302;-75
2022/07/23 06:51:58;;;;;;;;;18.33;17.00;;;;;;;;5039013;28;45507;-75
2022/07/23 06:54:23;;;;;;;;;18.33;18.33;;;;;;;;5038776;28;45456;-75
2022/07/23 06:56:48;;;;;;;;;25.67;20.67;;;;;;;;5038706;28;45447;-75
2022/07/23 06:59:14;;;;;;;;;23.67;23.00;;;;;;;;5039043;28;45460;-74
2022/07/23 07:01:39;;;;;;;;;20.33;19.33;;;;;;;;5038897;28;45378;-75
2022/07/23 07:04:04;;;;;;;;;24.33;21.00;;;;;;;;5029536;28;45473;-74
2022/07/23 07:06:30;;;;;;;;;23.00;21.00;;;;;;;;5038639;28;45361;-74
2022/07/23 07:08:55;;;;;;;;;25.67;20.67;;;;;;;;5038664;28;45397;-75
2022/07/23 07:11:21;;;;;;;;;26.33;21.67;;;;;;;;5038778;28;45656;-75
2022/07/23 07:13:46;;;;;;;;;24.33;23.00;;;;;;;;5038362;28;47225;-74
2022/07/23 07:16:11;;;;;;;;;25.67;19.33;;;;;;;;5038445;28;45385;-75
2022/07/23 07:18:36;;;;;;;;;29.33;26.00;;;;;;;;5038676;28;45204;-75
2022/07/23 07:21:01;;;;;;;;;21.33;20.33;;;;;;;;5038607;28;45469;-75
2022/07/23 07:23:27;;;;;;;;;20.33;20.33;;;;;;;;5038362;28;45394;-75
2022/07/23 07:25:52;;;;;;;;;17.00;16.67;;;;;;;;5038343;28;45406;-75
2022/07/23 07:28:17;;;;;;;;;30.67;25.33;;;;;;;;5038461;28;45216;-75
2022/07/23 07:30:42;;;;;;;;;23.33;22.00;;;;;;;;5038442;28;45365;-76
2022/07/23 07:33:07;;;;;;;;;20.00;20.00;;;;;;;;5038061;28;46670;-75
2022/07/23 07:35:33;;;;;;;;;20.00;18.33;;;;;;;;5038019;28;45284;-75
2022/07/23 07:37:59;;;;;;;;;24.00;23.00;;;;;;;;5038188;28;45215;-76
2022/07/23 07:40:24;;;;;;;;;24.67;22.67;;;;;;;;5038278;28;45406;-76
2022/07/23 07:42:51;;;;;;;;;20.33;20.00;;;;;;;;5038000;28;45544;-75
2022/07/23 07:45:19;;;;;;;;;21.33;19.33;;;;;;;;5038007;28;45434;-77
2022/07/23 07:47:44;;;;;;;;;27.00;22.67;;;;;;;;5038262;28;45322;-75
2022/07/23 07:50:10;;;;;;;;;22.33;20.67;;;;;;;;5038165;28;45544;-74
2022/07/23 07:52:38;;;;;;;;;42.00;34.33;;;;;;;;5037518;28;46439;-73
2022/07/23 07:55:04;;;;;;;;;21.00;15.33;;;;;;;;5037872;28;45198;-74
2022/07/23 07:57:29;;;;;;;;;36.33;32.33;;;;;;;;5037820;28;45203;-76
2022/07/23 07:59:55;;;;;;;;;18.67;18.00;;;;;;;;5037993;28;45469;-75
2022/07/23 08:02:20;;;;;;;;;22.33;17.33;;;;;;;;5019517;28;46411;-76
2022/07/23 08:04:45;;;;;;;;;22.67;19.00;;;;;;;;5037793;28;45227;-75
2022/07/23 08:07:10;;;;;;;;;21.00;18.33;;;;;;;;5037800;28;45419;-69
2022/07/23 08:09:36;;;;;;;;;22.00;19.00;;;;;;;;5038034;28;45304;-75
2022/07/23 08:12:01;;;;;;;;;23.00;18.67;;;;;;;;5037403;28;46147;-76
2022/07/23 08:14:26;;;;;;;;;25.33;21.00;;;;;;;;5037375;28;45363;-74
2022/07/23 08:16:51;;;;;;;;;22.00;18.67;;;;;;;;5037519;28;45410;-73
2022/07/23 08:19:17;;;;;;;;;26.33;21.67;;;;;;;;5037657;28;45378;-76
2022/07/23 08:21:42;;;;;;;;;20.67;18.67;;;;;;;;5037491;28;46183;-75
2022/07/23 08:24:07;;;;;;;;;15.00;14.67;;;;;;;;5036450;28;45453;-73
2022/07/23 08:26:32;;;;;;;;;18.67;16.67;;;;;;;;5037500;28;45299;-74
2022/07/23 08:28:57;;;;;;;;;21.33;21.33;;;;;;;;5037685;28;45353;-74
2022/07/23 08:31:23;;;;;;;;;17.67;17.67;;;;;;;;5037321;28;46591;-75
2022/07/23 08:33:48;;;;;;;;;39.00;33.00;;;;;;;;5037337;28;45380;-74
2022/07/23 08:36:13;;;;;;;;;18.00;18.00;;;;;;;;5037369;28;45297;-73
2022/07/23 08:38:38;;;;;;;;;21.33;18.33;;;;;;;;5037348;28;45352;-73
2022/07/23 08:41:07;;;;;;;;;18.00;18.00;;;;;;;;5037266;28;45426;-75
2022/07/23 08:43:34;;;;;;;;;19.33;14.33;;;;;;;;5037280;28;45239;-74
2022/07/23 08:46:00;;;;;;;;;17.67;15.67;;;;;;;;5037169;28;45303;-75
2022/07/23 08:48:27;;;;;;;;;20.00;20.00;;;;;;;;5037336;28;45156;-75
2022/07/23 08:50:56;;;;;;;;;21.00;17.00;;;;;;;;5036787;28;45476;-75
2022/07/23 08:53:22;;;;;;;;;20.67;20.67;;;;;;;;5036744;28;45215;-74
2022/07/23 08:55:49;;;;;;;;;20.00;18.67;;;;;;;;5036889;28;45262;-74
2022/07/23 08:58:14;;;;;;;;;17.00;15.00;;;;;;;;5037009;28;45443;-74
2022/07/23 09:00:39;;;;;;;;;16.33;16.33;;;;;;;;5036723;28;46149;-74
2022/07/23 09:03:05;;;;;;;;;20.33;17.67;;;;;;;;5036574;28;45511;-75
2022/07/23 09:05:30;;;;;;;;;19.67;17.67;;;;;;;;5039669;28;45206;-75
2022/07/23 09:08:14;;;;;;;;;19.00;17.00;;;;;;;;5040813;28;45413;-76
2022/07/23 09:10:48;;;;;;;;;17.00;14.33;;;;;;;;5040339;28;46223;-75
2022/07/23 09:13:24;;;;;;;;;14.00;14.00;;;;;;;;5040132;28;45352;-74
2022/07/23 09:15:49;;;;;;;;;18.00;17.33;;;;;;;;5040009;28;45376;-76
2022/07/23 09:18:16;;;;;;;;;15.00;13.00;;;;;;;;5040648;28;45327;-75
2022/07/23 09:20:41;;;;;;;;;16.33;13.33;;;;;;;;5040066;28;46121;-75
2022/07/23 09:23:06;;;;;;;;;16.33;15.67;;;;;;;;5040119;28;45223;-74
2022/07/23 09:25:31;;;;;;;;;14.67;12.00;;;;;;;;5040434;28;45423;-75
2022/07/23 09:28:02;;;;;;;;;16.67;16.67;;;;;;;;5040290;28;45332;-76
2022/07/23 09:30:28;;;;;;;;;21.67;17.67;;;;;;;;5039788;28;46514;-76
2022/07/23 09:33:13;;;;;;;;;19.00;16.33;;;;;;;;5040061;28;45441;-76
2022/07/23 09:35:46;;;;;;;;;18.33;15.33;;;;;;;;5039779;28;45462;-76
2022/07/23 09:38:12;;;;;;;;;14.67;14.67;;;;;;;;5039991;28;45337;-75
2022/07/23 09:40:37;;;;;;;;;18.00;18.00;;;;;;;;5039737;28;46347;-75
2022/07/23 09:43:03;;;;;;;;;20.00;16.67;;;;;;;;5039752;28;45221;-76
2022/07/23 09:45:28;;;;;;;;;18.33;17.00;;;;;;;;5039861;28;45463;-76
2022/07/23 09:48:09;;;;;;;;;15.33;13.00;;;;;;;;5040170;28;45314;-74
2022/07/23 09:50:35;;;;;;;;;19.00;17.00;;;;;;;;5039627;28;45438;-76
2022/07/23 09:53:00;;;;;;;;;16.00;15.67;;;;;;;;5039591;28;45391;-75
2022/07/23 09:55:34;;;;;;;;;16.67;15.00;;;;;;;;5040218;28;45317;-75
2022/07/23 09:57:59;;;;;;;;;16.67;15.00;;;;;;;;5039976;28;45344;-76
2022/07/23 10:00:24;;;;;;;;;19.00;15.67;;;;;;;;5039648;28;46284;-76
2022/07/23 10:02:50;;;;;;;;;19.00;17.00;;;;;;;;5039259;28;45461;-76
2022/07/23 10:05:15;;;;;;;;;17.67;14.00;;;;;;;;5039589;28;45281;-76
2022/07/23 10:07:41;;;;;;;;;18.00;17.00;;;;;;;;5039744;28;45449;-76
2022/07/23 10:10:07;;;;;;;;;18.00;14.67;;;;;;;;5039463;28;46393;-76
2022/07/23 10:14:58;;;;;;;;;17.67;16.00;;;;;;;;5038771;28;45479;-77
2022/07/23 10:17:23;;;;;;;;;13.00;12.00;;;;;;;;5038501;28;45343;-76
2022/07/23 10:19:49;;;;;;;;;15.00;15.00;;;;;;;;5039367;28;45419;-76
2022/07/23 10:22:18;;;;;;;;;14.67;12.00;;;;;;;;5039330;28;45413;-74
2022/07/23 10:24:49;;;;;;;;;16.00;12.67;;;;;;;;5039332;28;45425;-73
2022/07/23 10:27:33;;;;;;;;;17.67;16.67;;;;;;;;5039060;28;45235;-74
2022/07/23 10:30:04;;;;;;;;;12.00;12.00;;;;;;;;5038904;28;45405;-72
2022/07/23 10:32:35;;;;;;;;;18.67;17.33;;;;;;;;5039108;28;45355;-72
2022/07/23 10:35:18;;;;;;;;;11.00;11.00;;;;;;;;5039066;28;45271;-74
2022/07/23 10:37:47;;;;;;;;;13.00;12.00;;;;;;;;5038886;28;45548;-74
2022/07/23 10:40:21;;;;;;;;;14.67;14.33;;;;;;;;5038599;28;45737;-74
2022/07/23 10:42:47;;;;;;;;;13.33;13.33;;;;;;;;5038429;28;45503;-74
2022/07/23 10:45:30;;;;;;;;;12.67;10.67;;;;;;;;5039060;28;45447;-74
2022/07/23 10:47:56;;;;;;;;;17.25;15.50;;;;;;;;5039079;28;45503;-74
2022/07/23 10:50:27;;;;;;;;;12.75;12.25;;;;;;;;5038339;28;46483;-73
2022/07/23 10:53:15;;;;;;;;;10.67;9.00;;;;;;;;5038702;28;45365;-75
2022/07/23 10:55:40;;;;;;;;;17.25;14.75;;;;;;;;5038650;28;45231;-74
2022/07/23 10:58:06;;;;;;;;;8.50;8.50;;;;;;;;5039225;28;45132;-74
2022/07/23 11:00:32;;;;;;;;;15.25;14.25;;;;;;;;5038632;28;45352;-73
2022/07/23 11:02:59;;;;;;;;;10.75;9.25;;;;;;;;5038511;28;45354;-74
2022/07/23 11:05:26;;;;;;;;;7.75;7.75;;;;;;;;5038611;28;45345;-73
2022/07/23 11:08:03;;;;;;;;;7.00;6.50;;;;;;;;5038649;28;45569;-73
2022/07/23 11:10:38;;;;;;;;;6.25;6.00;;;;;;;;5038483;28;45219;-74
2022/07/23 11:13:22;;;;;;;;;9.00;7.33;;;;;;;;5038348;28;45284;-74
2022/07/23 11:16:04;;;;;;;;;7.33;7.33;;;;;;;;5038474;28;45441;-73
2022/07/23 11:18:44;;;;;;;;;9.33;9.33;;;;;;;;5038589;28;45492;-73
2022/07/23 11:21:22;;;;;;;;;9.33;8.33;;;;;;;;5038315;28;46029;-73
2022/07/23 11:23:57;;;;;;;;;8.33;8.00;;;;;;;;5038270;28;45480;-72
2022/07/23 11:26:37;;;;;;;;;9.00;9.00;;;;;;;;5038199;28;45334;-73
2022/07/23 11:29:21;;;;;;;;;8.67;8.67;;;;;;;;5038334;28;45592;-72
2022/07/23 11:31:52;;;;;;;;;9.00;9.00;;;;;;;;5038029;28;45452;-76
2022/07/23 11:34:24;;;;;;;;;9.33;9.33;;;;;;;;5037988;28;45322;-75
2022/07/23 11:36:50;;;;;;;;;9.00;9.00;;;;;;;;5038013;28;45186;-75
2022/07/23 11:39:15;;;;;;;;;15.00;12.00;;;;;;;;5038356;28;45211;-76
2022/07/23 11:41:44;;;;;;;;;12.67;12.00;;;;;;;;5038054;28;45347;-75
2022/07/23 11:44:31;;;;;;;;;13.33;12.00;;;;;;;;5037930;28;45449;-75
2022/07/23 11:47:10;;;;;;;;;22.67;18.33;;;;;;;;5038088;28;45440;-75
2022/07/23 11:49:36;;;;;;;;;24.33;22.33;;;;;;;;5038237;28;45512;-75
2022/07/23 11:52:07;;;;;;;;;21.67;19.33;;;;;;;;5037636;28;46022;-76
2022/07/23 11:54:33;;;;;;;;;20.00;16.67;;;;;;;;5037912;28;45438;-76
2022/07/23 11:56:59;;;;;;;;;19.00;18.00;;;;;;;;5037864;28;45341;-75
2022/07/23 11:59:25;;;;;;;;;25.33;24.00;;;;;;;;5038093;28;45509;-76
2022/07/23 12:02:01;;;;;;;;;21.00;18.33;;;;;;;;5037622;28;46221;-76
2022/07/23 12:04:46;;;;;;;;;20.67;16.33;;;;;;;;5037675;28;45272;-75
2022/07/23 12:07:33;;;;;;;;;21.67;17.33;;;;;;;;5037658;28;45245;-76
2022/07/23 12:10:01;;;;;;;;;20.33;17.33;;;;;;;;5037871;28;45444;-74
2022/07/23 12:12:26;;;;;;;;;24.00;17.67;;;;;;;;5037212;28;46558;-76
2022/07/23 12:14:53;;;;;;;;;17.00;15.33;;;;;;;;5037115;28;45423;-72
2022/07/23 12:17:19;;;;;;;;;16.33;14.33;;;;;;;;5037560;28;45347;-73
2022/07/23 12:19:45;;;;;;;;;15.33;15.33;;;;;;;;5037361;28;45393;-72
2022/07/23 12:22:10;;;;;;;;;24.00;20.67;;;;;;;;5037202;28;47726;-72
2022/07/23 12:24:54;;;;;;;;;22.33;20.67;;;;;;;;5037135;28;45207;-73
2022/07/23 12:27:20;;;;;;;;;23.33;21.67;;;;;;;;5037476;28;45295;-72
2022/07/23 12:29:45;;;;;;;;;21.00;19.33;;;;;;;;5037533;28;45280;-71
2022/07/23 12:32:18;;;;;;;;;30.33;24.00;;;;;;;;5036985;28;46559;-72
2022/07/23 12:34:43;;;;;;;;;33.67;28.33;;;;;;;;5037021;28;46040;-73
2022/07/23 12:37:23;;;;;;;;;28.67;24.33;;;;;;;;5037508;28;45326;-73
2022/07/23 12:39:49;;;;;;;;;16.33;14.67;;;;;;;;5036538;28;45461;-72
2022/07/23 12:42:14;;;;;;;;;25.33;24.33;;;;;;;;5037014;28;46093;-72
2022/07/23 12:44:39;;;;;;;;;28.67;23.67;;;;;;;;5037492;28;45506;-73
2022/07/23 12:47:04;;;;;;;;;21.67;19.00;;;;;;;;5037373;28;45336;-72
2022/07/23 12:49:30;;;;;;;;;23.67;19.67;;;;;;;;5037440;28;45279;-72
2022/07/23 12:51:55;;;;;;;;;28.67;23.67;;;;;;;;5037168;28;46551;-72
2022/07/23 12:54:27;;;;;;;;;27.33;23.33;;;;;;;;5036903;28;45521;-72
2022/07/23 12:56:52;;;;;;;;;29.67;28.33;;;;;;;;5037146;28;45413;-73
2022/07/23 12:59:18;;;;;;;;;27.67;25.67;;;;;;;;5037174;28;45463;-72
2022/07/23 13:01:48;;;;;;;;;24.33;22.33;;;;;;;;5036806;28;46951;-72
2022/07/23 13:04:21;;;;;;;;;18.00;18.00;;;;;;;;5036759;28;45460;-72
2022/07/23 13:06:50;;;;;;;;;16.33;14.33;;;;;;;;5036873;28;45351;-72
2022/07/23 13:09:20;;;;;;;;;17.33;16.33;;;;;;;;5036710;28;45489;-72
2022/07/23 13:11:47;;;;;;;;;15.33;15.00;;;;;;;;5036722;28;47235;-72
2022/07/23 13:14:12;;;;;;;;;12.67;12.67;;;;;;;;5036671;28;45417;-72
2022/07/23 13:16:38;;;;;;;;;18.00;18.00;;;;;;;;5036748;28;45207;-73
2022/07/23 13:19:04;;;;;;;;;19.33;17.33;;;;;;;;5037075;28;45235;-71
2022/07/23 13:21:29;;;;;;;;;20.00;18.33;;;;;;;;5036589;28;45373;-72
2022/07/23 13:23:55;;;;;;;;;26.33;24.67;;;;;;;;5036791;28;45294;-73
2022/07/23 13:26:20;;;;;;;;;25.00;20.67;;;;;;;;5036820;28;45300;-72
2022/07/23 13:28:45;;;;;;;;;25.00;23.00;;;;;;;;5036825;28;45416;-72
2022/07/23 13:31:11;;;;;;;;;29.67;25.33;;;;;;;;5036539;28;45485;-72
2022/07/23 13:33:36;;;;;;;;;26.33;21.33;;;;;;;;5036688;28;45228;-72
2022/07/23 13:36:02;;;;;;;;;19.00;17.33;;;;;;;;5036662;28;45318;-76
2022/07/23 13:38:27;;;;;;;;;21.67;17.33;;;;;;;;5036664;28;45513;-74
2022/07/23 13:40:52;;;;;;;;;29.67;28.67;;;;;;;;5036421;28;46004;-75
2022/07/23 13:43:19;;;;;;;;;22.33;21.67;;;;;;;;5036539;28;45384;-76
2022/07/23 13:45:44;;;;;;;;;22.67;19.33;;;;;;;;5036431;28;45246;-75
2022/07/23 13:48:10;;;;;;;;;21.00;17.67;;;;;;;;5036628;28;45404;-75
2022/07/23 13:50:36;;;;;;;;;20.33;18.00;;;;;;;;5037359;28;46377;-74
2022/07/23 13:53:03;;;;;;;;;17.67;14.33;;;;;;;;5039562;28;45314;-75
2022/07/23 13:55:28;;;;;;;;;19.00;19.00;;;;;;;;5040175;28;45201;-74
2022/07/23 13:57:53;;;;;;;;;19.33;17.00;;;;;;;;5039837;28;45269;-75
2022/07/23 14:00:19;;;;;;;;;16.33;16.33;;;;;;;;5039748;28;45340;-75
2022/07/23 14:02:44;;;;;;;;;14.33;14.00;;;;;;;;5039386;28;45255;-74
2022/07/23 14:05:10;;;;;;;;;15.33;15.00;;;;;;;;5039602;28;45322;-75
2022/07/23 14:07:36;;;;;;;;;12.33;12.33;;;;;;;;5039868;28;45447;-75
2022/07/23 14:10:02;;;;;;;;;14.67;14.33;;;;;;;;5039269;28;45334;-75
2022/07/23 14:12:27;;;;;;;;;24.33;19.33;;;;;;;;5038622;28;45346;-75
2022/07/23 14:14:53;;;;;;;;;21.00;17.67;;;;;;;;5039419;28;45404;-75
2022/07/23 14:17:18;;;;;;;;;18.33;16.33;;;;;;;;5039437;28;45397;-74
2022/07/23 14:19:43;;;;;;;;;12.67;12.67;;;;;;;;5039451;28;46738;-76
2022/07/23 14:22:09;;;;;;;;;12.67;12.67;;;;;;;;5039258;28;45281;-75